Terminal Aerodrome Forecast
Issued by NWS Chicago, IL

Home | Current Version | Previous Version | Text Only | Print | Product List | Glossary Off
Versions: 1 2 3 4 5 6 7 8 9 10 11 12 13 14 15 16 17 18 19 20

966
FTUS43 KLOT 220900 AAA
TAFRFD
TAF AMD
KRFD 220900Z 2209/2306 06009KT P6SM BKN200
     FM221400 05011G16KT P6SM SCT250
     FM230100 VRB03KT P6SM SKC=

USA.gov is the U.S. government's official web portal to all federal, state and local government web resources and services.